Time;durP1;ratioP1;P1;durP2;ratioP2;P2;SDS_P1;SDS_P2;PMS_P1;PMS_P2;Temp;Humidity;BMP_temperature;BMP_pressure;BME280_temperature;BME280_humidity;BME280_pressure;Samples;Min_cycle;Max_cycle;Signal;HPM_P1;HPM_P2
2023/01/10 00:00:36;;;;;;;20.77;3.28;;;5.20;99.90;;;;;;5070217;28;20048;-67
2023/01/10 00:03:07;;;;;;;15.68;2.50;;;5.20;99.90;;;;;;5051982;28;20495;-65
2023/01/10 00:05:34;;;;;;;21.73;2.70;;;5.10;99.90;;;;;;5069888;28;20051;-68
2023/01/10 00:08:03;;;;;;;22.05;3.33;;;5.10;99.90;;;;;;5066413;28;20044;-66
2023/01/10 00:10:29;;;;;;;16.35;2.22;;;5.10;99.90;;;;;;5069697;28;20164;-68
2023/01/10 00:15:39;;;;;;;20.77;2.55;;;5.00;99.90;;;;;;5068232;28;20094;-66
2023/01/10 00:18:04;;;;;;;18.33;2.80;;;5.00;99.90;;;;;;5068212;28;20486;-65
2023/01/10 00:20:30;;;;;;;18.30;3.17;;;5.00;99.90;;;;;;5068262;28;20036;-68
2023/01/10 00:22:56;;;;;;;19.48;3.00;;;5.00;99.90;;;;;;5068823;28;20037;-67
2023/01/10 00:25:22;;;;;;;15.35;2.67;;;5.10;99.90;;;;;;5067225;28;20051;-70
2023/01/10 00:27:52;;;;;;;19.60;3.28;;;5.10;99.90;;;;;;5068839;28;20067;-68
2023/01/10 00:30:18;;;;;;;19.35;3.53;;;5.20;99.90;;;;;;5069374;28;20040;-70
2023/01/10 00:32:44;;;;;;;17.77;3.83;;;5.30;99.90;;;;;;5067584;28;20032;-65
2023/01/10 00:35:11;;;;;;;20.80;2.88;;;5.30;99.90;;;;;;5066525;28;20040;-66
2023/01/10 00:37:37;;;;;;;22.15;3.45;;;5.40;99.90;;;;;;5066533;28;20045;-66
2023/01/10 00:40:07;;;;;;;16.23;2.58;;;5.40;99.90;;;;;;5068913;28;20107;-69
2023/01/10 00:45:18;;;;;;;13.52;2.75;;;5.60;99.90;;;;;;5067270;28;20479;-66
2023/01/10 00:47:44;;;;;;;16.33;3.00;;;5.70;99.90;;;;;;5068383;28;20087;-67
2023/01/10 00:50:13;;;;;;;16.55;3.17;;;5.70;99.90;;;;;;5068640;28;20153;-68
2023/01/10 00:52:38;;;;;;;14.75;2.42;;;5.80;99.90;;;;;;5067821;28;20043;-68
2023/01/10 00:55:04;;;;;;;13.00;2.40;;;5.80;99.90;;;;;;5066990;28;20044;-64
2023/01/10 00:57:30;;;;;;;15.65;3.42;;;5.90;99.90;;;;;;5068151;28;20800;-65
2023/01/10 00:59:56;;;;;;;17.90;3.28;;;5.90;99.90;;;;;;5050501;28;20044;-68
2023/01/10 01:02:21;;;;;;;15.55;2.67;;;5.90;99.90;;;;;;5029251;28;1089438;-64
2023/01/10 01:04:47;;;;;;;14.85;2.65;;;6.00;99.90;;;;;;5069577;28;20041;-67
2023/01/10 01:07:13;;;;;;;15.93;2.22;;;6.00;99.90;;;;;;5051410;28;20103;-69
2023/01/10 01:10:25;;;;;;;13.63;2.15;;;6.00;99.90;;;;;;5051533;28;20063;-66
2023/01/10 01:12:24;;;;;;;18.42;2.53;;;5.90;99.90;;;;;;5067932;28;20127;-65
2023/01/10 01:14:49;;;;;;;17.02;3.42;;;6.00;99.90;;;;;;5068206;28;20116;-69
2023/01/10 01:17:16;;;;;;;14.90;2.90;;;5.90;99.90;;;;;;5068898;28;20036;-65
2023/01/10 01:19:41;;;;;;;23.33;4.20;;;5.90;99.90;;;;;;5069007;28;20427;-64
2023/01/10 01:22:07;;;;;;;19.63;3.05;;;5.80;99.90;;;;;;5070032;28;20044;-66
2023/01/10 01:24:33;;;;;;;16.08;2.65;;;5.80;99.90;;;;;;5069513;28;20037;-67
2023/01/10 01:26:58;;;;;;;15.68;2.40;;;5.80;99.90;;;;;;5068381;28;20044;-69
2023/01/10 01:29:24;;;;;;;16.05;3.00;;;5.70;99.90;;;;;;5066394;28;20048;-66
2023/01/10 01:31:50;;;;;;;25.00;4.03;;;5.70;99.90;;;;;;5051133;28;20079;-68
2023/01/10 01:34:15;;;;;;;15.63;2.63;;;5.70;99.90;;;;;;5067514;28;20045;-69
2023/01/10 01:36:41;;;;;;;16.60;2.47;;;5.60;99.90;;;;;;5067183;28;20560;-65
2023/01/10 01:39:06;;;;;;;19.50;2.35;;;5.60;99.90;;;;;;5069540;28;20119;-66
2023/01/10 01:44:18;;;;;;;11.93;2.20;;;5.50;99.90;;;;;;5067037;28;20139;-66
2023/01/10 01:46:48;;;;;;;15.32;2.42;;;5.50;99.90;;;;;;5069200;28;20115;-64
2023/01/10 01:49:20;;;;;;;17.08;3.10;;;5.50;99.90;;;;;;5049787;28;20075;-68
2023/01/10 01:51:50;;;;;;;16.02;3.30;;;5.50;99.90;;;;;;5069335;28;20387;-66
2023/01/10 01:54:18;;;;;;;10.00;2.38;;;5.50;99.90;;;;;;5051618;28;20391;-67
2023/01/10 01:57:02;;;;;;;14.13;2.33;;;5.50;99.90;;;;;;5068160;28;20059;-65
2023/01/10 01:59:32;;;;;;;16.77;3.67;;;5.50;99.90;;;;;;5067235;28;20046;-66
2023/01/10 02:02:05;;;;;;;19.17;3.25;;;5.50;99.90;;;;;;5066720;28;20187;-66
2023/01/10 02:04:40;;;;;;;13.18;2.25;;;5.50;99.90;;;;;;5066765;28;20043;-66
2023/01/10 02:07:06;;;;;;;14.73;2.38;;;5.60;99.90;;;;;;5067870;28;20028;-65
2023/01/10 02:09:47;;;;;;;15.95;2.58;;;5.50;99.90;;;;;;5067654;28;20101;-68
2023/01/10 02:12:14;;;;;;;21.85;2.90;;;5.50;99.90;;;;;;5065113;28;20043;-68
2023/01/10 02:14:43;;;;;;;11.55;2.45;;;5.50;99.90;;;;;;5067467;28;20028;-69
2023/01/10 02:17:10;;;;;;;17.67;3.63;;;5.40;99.90;;;;;;5066374;28;20041;-69
2023/01/10 02:19:57;;;;;;;16.90;3.13;;;5.40;99.90;;;;;;5064155;28;20124;-67
2023/01/10 02:22:41;;;;;;;18.20;3.28;;;5.30;99.90;;;;;;5064418;28;20033;-66
2023/01/10 02:25:22;;;;;;;16.73;2.38;;;5.30;99.90;;;;;;5067335;28;20490;-67
2023/01/10 02:27:58;;;;;;;17.63;3.50;;;5.20;99.90;;;;;;5064990;28;20114;-67
2023/01/10 02:30:46;;;;;;;9.40;2.50;;;5.20;99.90;;;;;;5067662;28;20102;-64
2023/01/10 02:33:21;;;;;;;15.75;2.47;;;5.20;99.90;;;;;;5065225;28;20047;-67
2023/01/10 02:36:18;;;;;;;15.18;2.97;;;5.20;99.90;;;;;;5067353;28;20783;-69
2023/01/10 02:39:28;;;;;;;12.77;2.42;;;5.20;99.90;;;;;;5066742;28;20385;-67
2023/01/10 02:42:13;;;;;;;17.05;2.78;;;5.20;99.90;;;;;;4979328;28;20050;-67
2023/01/10 02:44:53;;;;;;;14.40;3.17;;;5.30;99.90;;;;;;4990252;28;20107;-68
2023/01/10 02:47:19;;;;;;;17.67;3.28;;;5.30;99.90;;;;;;4990714;28;20046;-67
2023/01/10 02:49:49;;;;;;;13.65;2.53;;;5.30;99.90;;;;;;4980925;28;20057;-67
2023/01/10 02:52:21;;;;;;;15.52;3.15;;;5.40;99.90;;;;;;5006407;28;20078;-67
2023/01/10 02:54:48;;;;;;;;;;;5.40;99.90;;;;;;4982712;28;20042;-66
2023/01/10 02:57:16;;;;;;;16.58;2.60;;;5.50;99.90;;;;;;4990638;28;20039;-69
2023/01/10 03:00:16;;;;;;;17.10;3.28;;;5.50;99.90;;;;;;4970922;28;20046;-67
2023/01/10 03:03:32;;;;;;;11.95;2.13;;;5.50;99.90;;;;;;4973938;28;20596;-67
2023/01/10 03:06:32;;;;;;;15.13;2.80;;;5.60;99.90;;;;;;4936590;28;20089;-65
2023/01/10 03:09:05;;;;;;;13.88;2.08;;;5.60;99.90;;;;;;4857691;29;20057;-65
2023/01/10 03:11:40;;;;;;;13.32;3.08;;;5.60;99.90;;;;;;4856600;29;20067;-66
2023/01/10 03:14:18;;;;;;;12.85;2.50;;;5.60;99.90;;;;;;4857098;29;20061;-67
2023/01/10 03:16:51;;;;;;;18.08;3.10;;;5.60;99.90;;;;;;4842531;29;20116;-67
2023/01/10 03:19:19;;;;;;;;;;;5.60;99.90;;;;;;4872436;29;20084;-69
2023/01/10 03:21:48;;;;;;;18.38;3.72;;;5.60;99.90;;;;;;4857763;29;19983;-65
2023/01/10 03:24:21;;;;;;;19.55;3.60;;;5.60;99.90;;;;;;4872962;29;20117;-66
2023/01/10 03:26:57;;;;;;;12.32;2.55;;;5.60;99.90;;;;;;4875811;29;20090;-68
2023/01/10 03:29:41;;;;;;;13.05;2.80;;;5.60;99.90;;;;;;4873480;29;20041;-66
2023/01/10 03:32:10;;;;;;;13.25;2.55;;;5.60;99.90;;;;;;4872303;29;20488;-69
2023/01/10 03:34:37;;;;;;;13.43;2.58;;;5.60;99.90;;;;;;4871655;29;20157;-68
2023/01/10 03:37:38;;;;;;;17.02;3.05;;;5.60;99.90;;;;;;4872431;29;20049;-64
2023/01/10 03:40:15;;;;;;;13.18;2.42;;;5.60;99.90;;;;;;4905531;28;20137;-66
2023/01/10 03:45:48;;;;;;;16.65;3.05;;;5.60;99.90;;;;;;5063956;28;20407;-66
2023/01/10 03:48:15;;;;;;;20.10;2.70;;;5.70;99.90;;;;;;5072918;28;20036;-66
2023/01/10 03:50:43;;;;;;;17.23;2.33;;;5.60;99.90;;;;;;5071218;28;20033;-67
2023/01/10 03:53:11;;;;;;;16.90;2.80;;;5.70;99.90;;;;;;5071519;28;20036;-64
2023/01/10 03:55:39;;;;;;;16.48;2.92;;;5.70;99.90;;;;;;5070667;28;20063;-68
2023/01/10 03:58:06;;;;;;;17.13;3.13;;;5.70;99.90;;;;;;5069920;28;20040;-67
2023/01/10 04:00:32;;;;;;;21.67;4.15;;;5.70;99.90;;;;;;5071354;28;20036;-67
2023/01/10 04:02:58;;;;;;;19.77;2.90;;;5.80;99.90;;;;;;5069406;28;20044;-66
2023/01/10 04:05:24;;;;;;;14.85;2.80;;;5.80;99.90;;;;;;5053532;28;20033;-66
2023/01/10 04:07:50;;;;;;;20.75;3.55;;;5.80;99.90;;;;;;5069551;28;20491;-66
2023/01/10 04:10:16;;;;;;;23.02;2.50;;;5.80;99.90;;;;;;5071440;28;20046;-64
2023/01/10 04:12:42;;;;;;;22.60;3.35;;;5.80;99.90;;;;;;5069144;28;20045;-65
2023/01/10 04:15:08;;;;;;;19.38;3.17;;;5.80;99.90;;;;;;5066351;28;20037;-65
2023/01/10 04:17:34;;;;;;;21.48;3.28;;;5.80;99.90;;;;;;5070181;28;20056;-69
2023/01/10 04:19:59;;;;;;;19.77;2.92;;;5.80;99.90;;;;;;5069237;28;20536;-68
2023/01/10 04:22:25;;;;;;;20.10;3.05;;;5.80;99.90;;;;;;5069927;28;20481;-66
2023/01/10 04:24:52;;;;;;;17.00;3.13;;;5.80;99.90;;;;;;5069903;28;20185;-68
2023/01/10 04:27:19;;;;;;;20.55;2.60;;;5.80;99.90;;;;;;5069291;28;20478;-66
2023/01/10 04:29:45;;;;;;;19.65;3.10;;;5.70;99.90;;;;;;5070654;28;20055;-69
2023/01/10 04:32:11;;;;;;;13.43;3.13;;;5.70;99.90;;;;;;5070191;28;20040;-68
2023/01/10 04:34:36;;;;;;;13.90;2.83;;;5.70;99.90;;;;;;5070558;28;20051;-66
2023/01/10 04:37:02;;;;;;;16.33;2.47;;;5.70;99.90;;;;;;5067047;28;20137;-66
2023/01/10 04:39:28;;;;;;;16.90;3.55;;;5.60;99.90;;;;;;5068875;28;20076;-66
2023/01/10 04:41:53;;;;;;;20.13;2.75;;;5.60;99.90;;;;;;5067364;28;20056;-68
2023/01/10 04:44:19;;;;;;;19.90;3.55;;;5.60;99.90;;;;;;5069724;28;20032;-65
2023/01/10 04:46:45;;;;;;;22.90;3.30;;;5.50;99.90;;;;;;5067896;28;20037;-64
2023/01/10 04:49:10;;;;;;;21.20;3.45;;;5.50;99.90;;;;;;5069521;28;20098;-69
2023/01/10 04:51:36;;;;;;;16.60;2.90;;;5.50;99.90;;;;;;5069691;28;20044;-67
2023/01/10 04:54:02;;;;;;;24.52;4.53;;;5.50;99.90;;;;;;5065634;28;20054;-68
2023/01/10 04:56:28;;;;;;;22.70;3.22;;;5.50;99.90;;;;;;5068525;28;20047;-66
2023/01/10 04:58:54;;;;;;;25.23;3.63;;;5.50;99.90;;;;;;5068768;28;20059;-68
2023/01/10 05:01:22;;;;;;;25.55;3.47;;;5.60;99.90;;;;;;5069751;28;20491;-66
2023/01/10 05:03:49;;;;;;;20.25;3.33;;;5.60;99.90;;;;;;5069612;28;20046;-64
2023/01/10 05:06:16;;;;;;;14.73;3.28;;;5.60;99.90;;;;;;5069523;28;20044;-68
2023/01/10 05:08:42;;;;;;;18.73;2.78;;;5.70;99.90;;;;;;5068101;28;20071;-67
2023/01/10 05:11:08;;;;;;;19.38;2.90;;;5.70;99.90;;;;;;5067188;28;20048;-67
2023/01/10 05:13:34;;;;;;;24.73;4.60;;;5.70;99.90;;;;;;5068371;28;20047;-65
2023/01/10 05:15:59;;;;;;;22.98;3.70;;;5.80;99.90;;;;;;5068355;28;20127;-68
2023/01/10 05:18:26;;;;;;;18.20;3.15;;;5.80;99.90;;;;;;5069195;28;20525;-67
2023/01/10 05:20:52;;;;;;;18.75;3.72;;;5.80;99.90;;;;;;5066597;28;20121;-69
2023/01/10 05:23:18;;;;;;;21.92;3.03;;;5.80;99.90;;;;;;5069696;28;20032;-65
2023/01/10 05:25:44;;;;;;;23.60;3.33;;;5.80;99.90;;;;;;5053251;28;20052;-69
2023/01/10 05:28:10;;;;;;;16.88;3.28;;;5.80;99.90;;;;;;5069069;28;20520;-68
2023/01/10 05:30:36;;;;;;;21.15;3.65;;;5.80;99.90;;;;;;5068039;28;20430;-68
2023/01/10 05:33:04;;;;;;;16.80;3.30;;;5.80;99.90;;;;;;5068506;28;20369;-67
2023/01/10 05:35:30;;;;;;;19.02;3.05;;;5.80;99.90;;;;;;5067121;28;20036;-66
2023/01/10 05:37:56;;;;;;;21.70;3.10;;;5.80;99.90;;;;;;5065269;28;20044;-67
2023/01/10 05:40:21;;;;;;;20.80;3.55;;;5.80;99.90;;;;;;5067408;28;20087;-68
2023/01/10 05:42:47;;;;;;;25.10;4.05;;;5.80;99.90;;;;;;5068500;28;20039;-66
2023/01/10 05:45:13;;;;;;;16.25;3.35;;;5.80;99.90;;;;;;5051112;28;20146;-71
2023/01/10 05:47:38;;;;;;;24.25;3.85;;;5.80;99.90;;;;;;5067906;28;20066;-69
2023/01/10 05:50:04;;;;;;;19.15;3.42;;;5.70;99.90;;;;;;5068099;28;20495;-65
2023/01/10 05:52:30;;;;;;;23.50;3.85;;;5.70;99.90;;;;;;5067303;28;20040;-66
2023/01/10 05:54:56;;;;;;;16.23;3.08;;;5.60;99.90;;;;;;5067841;28;20506;-69
2023/01/10 05:57:23;;;;;;;19.45;3.50;;;5.60;99.90;;;;;;5068008;28;20373;-67
2023/01/10 05:59:49;;;;;;;21.55;3.60;;;5.50;99.90;;;;;;5067859;28;20617;-68
2023/01/10 06:02:15;;;;;;;28.58;3.35;;;5.50;99.90;;;;;;5065810;28;20056;-69
2023/01/10 06:04:41;;;;;;;26.73;3.75;;;5.40;99.90;;;;;;5063589;28;20047;-69
2023/01/10 06:07:06;;;;;;;19.75;3.13;;;5.40;99.90;;;;;;5065348;28;20040;-66
2023/01/10 06:09:32;;;;;;;19.42;3.22;;;5.30;99.90;;;;;;5071921;28;20572;-69
2023/01/10 06:11:57;;;;;;;21.52;4.18;;;5.30;99.90;;;;;;5077951;28;20041;-67
2023/01/10 06:14:23;;;;;;;20.90;3.83;;;5.20;99.90;;;;;;5075171;28;20059;-68
2023/01/10 06:16:49;;;;;;;20.83;3.35;;;5.20;99.90;;;;;;5062927;28;20056;-64
2023/01/10 06:19:14;;;;;;;19.98;2.90;;;5.20;99.90;;;;;;5062372;28;20052;-64
2023/01/10 06:21:40;;;;;;;22.33;3.05;;;5.10;99.90;;;;;;5061068;28;20071;-72
2023/01/10 06:24:06;;;;;;;19.52;3.00;;;5.10;99.90;;;;;;5063823;28;20043;-67
2023/01/10 06:26:31;;;;;;;22.83;3.60;;;5.10;99.90;;;;;;5065710;28;20499;-66
2023/01/10 06:28:58;;;;;;;30.67;4.57;;;5.00;99.90;;;;;;5076587;28;21208;-65
2023/01/10 06:31:24;;;;;;;16.83;3.20;;;5.00;99.90;;;;;;5065306;28;20063;-69
2023/01/10 06:33:50;;;;;;;21.05;3.33;;;5.00;99.90;;;;;;5066380;28;20056;-68
2023/01/10 06:36:16;;;;;;;24.55;3.90;;;5.00;99.90;;;;;;5050710;28;20116;-70
2023/01/10 06:38:42;;;;;;;21.15;3.00;;;5.00;99.90;;;;;;5067096;28;20051;-66
2023/01/10 06:41:13;;;;;;;21.33;3.55;;;5.00;99.90;;;;;;5063583;28;20147;-65
2023/01/10 06:43:44;;;;;;;20.45;3.88;;;4.90;99.90;;;;;;5067321;28;20036;-65
2023/01/10 06:46:11;;;;;;;23.95;3.47;;;4.90;99.90;;;;;;5065105;28;20031;-67
2023/01/10 06:48:37;;;;;;;25.75;3.97;;;4.90;99.90;;;;;;5067292;28;20119;-66
2023/01/10 06:51:04;;;;;;;20.13;4.25;;;4.90;99.90;;;;;;5065585;28;20046;-67
2023/01/10 06:53:30;;;;;;;25.15;4.63;;;4.90;99.90;;;;;;5066932;28;20483;-67
2023/01/10 06:55:56;;;;;;;15.65;2.90;;;4.90;99.90;;;;;;5063472;28;20486;-66
2023/01/10 06:58:22;;;;;;;20.73;3.80;;;4.90;99.90;;;;;;5068092;28;20098;-64
2023/01/10 07:00:48;;;;;;;20.45;4.05;;;4.90;99.90;;;;;;5064653;28;20048;-68
2023/01/10 07:03:14;;;;;;;19.90;3.53;;;4.90;99.90;;;;;;5066746;28;20059;-66
2023/01/10 07:05:40;;;;;;;24.55;3.90;;;4.90;99.90;;;;;;5067735;28;20376;-66
2023/01/10 07:08:05;;;;;;;22.70;3.47;;;4.90;99.90;;;;;;5066833;28;20150;-66
2023/01/10 07:10:31;;;;;;;21.33;3.63;;;4.90;99.90;;;;;;5078620;28;20135;-64
2023/01/10 07:12:57;;;;;;;25.38;3.97;;;4.90;99.90;;;;;;5064419;28;20064;-64
2023/01/10 07:15:25;;;;;;;23.35;4.38;;;4.90;99.90;;;;;;5067022;28;20048;-66
2023/01/10 07:17:50;;;;;;;14.50;2.85;;;4.90;99.90;;;;;;5069189;28;20047;-66
2023/01/10 07:20:16;;;;;;;23.75;3.75;;;4.90;99.90;;;;;;5072055;28;20395;-66
2023/01/10 07:22:42;;;;;;;16.73;3.85;;;4.90;99.90;;;;;;5071108;28;20074;-68
2023/01/10 07:25:08;;;;;;;20.40;3.75;;;4.90;99.90;;;;;;5054441;28;20029;-63
2023/01/10 07:27:33;;;;;;;28.60;3.70;;;5.00;99.90;;;;;;5070543;28;20062;-67
2023/01/10 07:29:59;;;;;;;24.48;3.33;;;5.00;99.90;;;;;;5071327;28;20036;-67
2023/01/10 07:32:25;;;;;;;19.70;3.75;;;4.90;99.90;;;;;;5068489;28;20064;-69
2023/01/10 07:34:51;;;;;;;24.02;3.75;;;4.90;99.90;;;;;;5071790;28;20055;-67
2023/01/10 07:37:17;;;;;;;20.67;3.42;;;5.00;99.90;;;;;;5071625;28;20037;-67
2023/01/10 07:39:42;;;;;;;23.33;3.95;;;5.00;99.90;;;;;;5054922;28;20071;-68
2023/01/10 07:42:09;;;;;;;26.25;4.20;;;5.00;99.90;;;;;;5069482;28;20040;-66
2023/01/10 07:44:34;;;;;;;22.08;3.67;;;5.00;99.90;;;;;;5070385;28;20071;-66
2023/01/10 07:47:00;;;;;;;23.00;3.83;;;5.10;99.90;;;;;;5068518;28;20421;-67
2023/01/10 07:49:26;;;;;;;24.50;4.07;;;5.10;99.90;;;;;;5069692;28;20133;-68
2023/01/10 07:51:52;;;;;;;23.20;3.88;;;5.20;99.90;;;;;;5071621;28;20040;-66
2023/01/10 07:54:18;;;;;;;17.92;3.30;;;5.20;99.90;;;;;;5067423;28;20032;-66
2023/01/10 07:56:46;;;;;;;20.50;4.28;;;5.20;99.90;;;;;;5067789;28;20160;-66
2023/01/10 07:59:14;;;;;;;18.30;3.50;;;5.10;99.90;;;;;;5069838;28;20222;-66
2023/01/10 08:01:40;;;;;;;19.35;3.53;;;5.10;99.90;;;;;;5053270;28;20071;-67
2023/01/10 08:04:06;;;;;;;21.25;3.38;;;5.10;99.90;;;;;;5071193;28;20131;-64
2023/01/10 08:06:31;;;;;;;25.02;3.83;;;5.10;99.90;;;;;;5070525;28;20032;-66
2023/01/10 08:08:57;;;;;;;20.98;3.92;;;5.00;99.90;;;;;;5069508;28;20036;-68
2023/01/10 08:11:23;;;;;;;23.42;4.25;;;5.00;99.90;;;;;;5071096;28;20476;-67
2023/01/10 08:13:48;;;;;;;24.33;4.88;;;5.00;99.90;;;;;;5069820;28;20079;-67
2023/01/10 08:16:14;;;;;;;29.35;4.18;;;5.00;99.90;;;;;;5071297;28;20087;-68
2023/01/10 08:18:42;;;;;;;18.52;3.55;;;5.00;99.90;;;;;;5069692;28;20054;-67
2023/01/10 08:21:08;;;;;;;27.75;3.80;;;5.00;99.90;;;;;;5070928;28;20110;-65
2023/01/10 08:23:34;;;;;;;29.70;4.32;;;4.90;99.90;;;;;;5068603;28;20071;-64
2023/01/10 08:26:00;;;;;;;20.02;4.00;;;4.90;99.90;;;;;;5071149;28;20462;-68
2023/01/10 08:28:26;;;;;;;17.17;3.53;;;4.90;99.90;;;;;;5069378;28;20120;-67
2023/01/10 08:30:54;;;;;;;19.90;3.70;;;4.90;99.90;;;;;;5052687;28;20107;-67
2023/01/10 08:33:22;;;;;;;27.73;4.57;;;4.90;99.90;;;;;;5068033;28;20107;-66
2023/01/10 08:35:48;;;;;;;25.67;3.85;;;5.00;99.90;;;;;;5070750;28;20554;-65
2023/01/10 08:38:14;;;;;;;25.83;3.63;;;5.00;99.90;;;;;;5067230;28;20115;-64
2023/01/10 08:40:39;;;;;;;23.88;5.07;;;5.00;99.90;;;;;;5069047;28;20119;-66
2023/01/10 08:43:08;;;;;;;27.10;3.75;;;5.10;99.90;;;;;;5069314;28;20048;-68
2023/01/10 08:45:36;;;;;;;24.63;3.90;;;5.10;99.90;;;;;;5061510;28;20062;-66
2023/01/10 08:48:02;;;;;;;23.65;3.72;;;5.20;99.90;;;;;;5053770;28;20046;-65
2023/01/10 08:50:28;;;;;;;24.23;5.45;;;5.30;99.90;;;;;;5066469;28;20394;-65
2023/01/10 08:52:57;;;;;;;27.77;3.88;;;5.30;99.90;;;;;;5067533;28;20116;-66
2023/01/10 08:55:23;;;;;;;31.33;4.43;;;5.40;99.90;;;;;;5066515;28;20530;-65
2023/01/10 08:57:48;;;;;;;21.05;4.03;;;5.50;99.90;;;;;;5067655;28;20156;-64
2023/01/10 09:00:14;;;;;;;23.30;4.60;;;5.50;99.90;;;;;;5068601;28;20120;-66
2023/01/10 09:02:40;;;;;;;20.08;3.85;;;5.60;99.90;;;;;;5064446;28;20083;-67
2023/01/10 09:05:07;;;;;;;26.10;4.47;;;5.70;99.90;;;;;;5065833;28;20508;-66
2023/01/10 09:07:32;;;;;;;28.70;4.38;;;5.70;99.90;;;;;;5065593;28;20068;-69
2023/01/10 09:09:58;;;;;;;23.30;3.75;;;5.80;99.90;;;;;;5063248;28;20079;-64
2023/01/10 09:15:09;;;;;;;22.98;3.58;;;5.90;99.90;;;;;;5077253;28;20135;-66
2023/01/10 09:17:35;;;;;;;25.65;5.10;;;6.00;99.90;;;;;;5056962;28;20040;-69
2023/01/10 09:20:04;;;;;;;26.67;5.38;;;6.10;99.90;;;;;;5061323;28;20044;-71
2023/01/10 09:22:30;;;;;;;19.70;3.67;;;6.10;99.90;;;;;;5061209;28;20036;-71
2023/01/10 09:24:56;;;;;;;24.02;4.18;;;6.20;99.90;;;;;;5063625;28;20036;-68
2023/01/10 09:27:22;;;;;;;25.88;4.30;;;6.20;99.90;;;;;;5061853;28;20490;-65
2023/01/10 09:29:47;;;;;;;24.85;4.00;;;6.20;99.90;;;;;;5067527;28;20174;-65
2023/01/10 09:32:13;;;;;;;23.42;3.83;;;6.30;99.90;;;;;;5068385;28;20040;-66
2023/01/10 09:34:39;;;;;;;24.25;4.32;;;6.30;99.90;;;;;;5067138;28;20079;-69
2023/01/10 09:37:04;;;;;;;19.63;4.28;;;6.40;99.90;;;;;;5068201;28;20068;-65
2023/01/10 09:39:31;;;;;;;26.13;3.50;;;6.40;99.90;;;;;;5061255;28;20097;-67
2023/01/10 09:42:14;;;;;;;23.58;5.13;;;6.50;99.90;;;;;;5068265;28;20037;-67
2023/01/10 09:44:46;;;;;;;22.58;3.85;;;6.50;99.90;;;;;;5067921;28;20115;-65
2023/01/10 09:47:23;;;;;;;21.75;4.85;;;6.60;99.90;;;;;;5085627;28;20040;-67
2023/01/10 09:50:29;;;;;;;19.15;4.15;;;6.60;99.90;;;;;;5067603;28;20108;-67
2023/01/10 09:53:05;;;;;;;23.30;3.90;;;6.60;99.90;;;;;;5082838;28;20135;-65
2023/01/10 09:55:35;;;;;;;20.75;4.63;;;6.60;99.90;;;;;;5069214;28;20506;-64
2023/01/10 09:58:05;;;;;;;23.77;4.93;;;6.60;99.90;;;;;;5069419;28;20495;-63
2023/01/10 10:01:00;;;;;;;24.00;4.85;;;6.70;99.90;;;;;;5068581;28;20055;-64
2023/01/10 10:03:37;;;;;;;18.55;4.63;;;6.70;99.90;;;;;;5068493;28;20071;-65
2023/01/10 10:06:03;;;;;;;25.30;5.43;;;6.70;99.90;;;;;;5068312;28;20111;-67
2023/01/10 10:08:29;;;;;;;38.55;4.90;;;6.70;99.90;;;;;;5068565;28;20032;-67
2023/01/10 10:11:06;;;;;;;27.13;4.82;;;6.80;99.90;;;;;;5063119;28;20035;-66
2023/01/10 10:13:58;;;;;;;21.33;5.15;;;6.80;99.90;;;;;;5061143;28;20450;-67
2023/01/10 10:16:55;;;;;;;22.73;5.10;;;6.80;99.90;;;;;;5029401;28;20086;-65
2023/01/10 10:19:27;;;;;;;25.70;5.35;;;6.80;99.90;;;;;;5029471;28;20058;-65
2023/01/10 10:22:13;;;;;;;24.33;5.47;;;6.80;99.90;;;;;;5028647;28;20053;-64
2023/01/10 10:24:41;;;;;;;20.35;5.55;;;6.80;99.90;;;;;;5028397;28;20098;-65
2023/01/10 10:27:23;;;;;;;21.77;5.75;;;6.80;99.90;;;;;;5029668;28;20060;-65
2023/01/10 10:29:58;;;;;;;24.88;6.65;;;6.80;99.90;;;;;;5028964;28;20048;-67
2023/01/10 10:32:36;;;;;;;28.73;6.90;;;6.90;99.90;;;;;;5047087;28;20072;-66
2023/01/10 10:35:17;;;;;;;25.73;7.05;;;6.80;99.90;;;;;;5047193;28;20057;-63
2023/01/10 10:37:50;;;;;;;27.87;6.03;;;6.80;99.90;;;;;;5026685;28;20040;-65
2023/01/10 10:40:21;;;;;;;25.77;6.55;;;6.80;99.90;;;;;;5026279;28;20492;-66
2023/01/10 10:42:50;;;;;;;23.20;6.63;;;6.90;99.90;;;;;;5029895;28;20037;-67
2023/01/10 10:45:39;;;;;;;23.50;6.53;;;6.90;99.90;;;;;;5029248;28;20045;-65
2023/01/10 10:48:16;;;;;;;28.17;7.75;;;6.80;99.90;;;;;;5029324;28;20059;-66
2023/01/10 10:51:15;;;;;;;24.10;6.93;;;6.90;99.90;;;;;;5029806;28;20043;-68
2023/01/10 10:53:41;;;;;;;24.08;6.88;;;6.80;99.90;;;;;;4993994;28;20046;-65
2023/01/10 10:56:14;;;;;;;34.35;7.25;;;6.90;99.90;;;;;;5008680;28;20128;-66
2023/01/10 10:58:43;;;;;;;25.50;7.07;;;6.90;99.90;;;;;;4993799;28;20075;-66
2023/01/10 11:01:13;;;;;;;22.80;6.40;;;6.90;99.90;;;;;;4992628;28;20061;-64
2023/01/10 11:03:51;;;;;;;30.52;6.57;;;6.90;99.90;;;;;;4995141;28;20465;-67
2023/01/10 11:06:18;;;;;;;23.95;7.20;;;6.90;99.90;;;;;;4993447;28;20488;-69
2023/01/10 11:08:46;;;;;;;25.77;6.72;;;6.80;99.90;;;;;;5008531;28;20053;-66
2023/01/10 11:11:28;;;;;;;23.55;6.32;;;6.90;99.90;;;;;;4993279;28;20104;-66
2023/01/10 11:13:57;;;;;;;21.60;6.00;;;6.90;99.90;;;;;;4993918;28;20048;-64
2023/01/10 11:16:31;;;;;;;26.27;5.68;;;6.90;99.90;;;;;;4993915;28;20508;-65
2023/01/10 11:19:22;;;;;;;28.25;5.65;;;6.90;99.90;;;;;;4992215;28;20046;-65
2023/01/10 11:21:50;;;;;;;22.13;5.28;;;6.90;99.90;;;;;;4994691;28;20046;-64
2023/01/10 11:24:42;;;;;;;23.77;5.45;;;6.90;99.90;;;;;;4978093;28;20108;-64
2023/01/10 11:27:20;;;;;;;24.70;5.68;;;6.90;99.90;;;;;;5008598;28;20151;-64
2023/01/10 11:29:47;;;;;;;28.02;6.07;;;6.90;99.90;;;;;;5001959;28;20052;-66
2023/01/10 11:32:17;;;;;;;18.67;4.78;;;6.80;99.90;;;;;;5053083;28;20071;-65
2023/01/10 11:34:58;;;;;;;23.60;5.38;;;6.80;99.90;;;;;;5070894;28;20525;-64
2023/01/10 11:37:27;;;;;;;24.40;5.38;;;6.80;99.90;;;;;;5067157;28;20036;-66
2023/01/10 11:40:16;;;;;;;25.30;5.32;;;6.80;99.90;;;;;;5069675;28;20062;-66
2023/01/10 11:42:41;;;;;;;26.77;4.95;;;6.80;99.90;;;;;;5063723;28;20531;-67
2023/01/10 11:45:16;;;;;;;18.55;5.32;;;6.80;99.90;;;;;;5068293;28;20111;-67
2023/01/10 11:47:45;;;;;;;24.67;5.35;;;6.80;99.90;;;;;;5069817;28;20040;-66
2023/01/10 11:50:11;;;;;;;25.88;5.10;;;6.80;99.90;;;;;;5069390;28;20052;-66
2023/01/10 11:52:43;;;;;;;24.05;4.18;;;6.80;99.90;;;;;;5053267;28;20040;-65
2023/01/10 11:55:10;;;;;;;23.98;7.00;;;6.80;99.90;;;;;;5053879;28;20048;-65
2023/01/10 11:57:36;;;;;;;22.88;4.57;;;6.80;99.90;;;;;;5067000;28;20064;-65
2023/01/10 12:00:05;;;;;;;20.52;4.50;;;6.80;99.90;;;;;;5061714;28;20036;-67
2023/01/10 12:02:51;;;;;;;20.52;4.82;;;6.80;99.90;;;;;;5066675;28;20048;-66
2023/01/10 12:05:19;;;;;;;21.00;4.05;;;6.80;99.90;;;;;;5070357;28;20045;-67
2023/01/10 12:08:05;;;;;;;22.00;4.28;;;6.80;99.90;;;;;;5066567;28;20048;-66
2023/01/10 12:10:32;;;;;;;20.20;4.97;;;6.70;99.90;;;;;;5068376;28;20491;-67
2023/01/10 12:13:20;;;;;;;25.00;5.20;;;6.70;99.90;;;;;;5068585;28;20043;-66
2023/01/10 12:15:48;;;;;;;17.70;4.82;;;6.70;99.90;;;;;;5069650;28;20110;-66
2023/01/10 12:18:16;;;;;;;21.75;5.03;;;6.70;99.90;;;;;;5068489;28;20041;-65
2023/01/10 12:20:51;;;;;;;20.63;3.80;;;6.70;99.90;;;;;;5068055;28;20045;-66
2023/01/10 12:23:20;;;;;;;17.27;4.25;;;6.70;99.90;;;;;;5069474;28;20119;-65
2023/01/10 12:25:46;;;;;;;18.08;4.22;;;6.70;99.90;;;;;;5067622;28;20055;-65
2023/01/10 12:28:17;;;;;;;23.55;4.53;;;6.70;99.90;;;;;;5070215;28;20036;-65
2023/01/10 12:30:48;;;;;;;28.30;5.05;;;6.70;99.90;;;;;;5070243;28;20376;-64
2023/01/10 12:33:37;;;;;;;23.65;4.88;;;6.70;99.90;;;;;;5068496;28;20282;-64
2023/01/10 12:36:25;;;;;;;22.55;4.40;;;6.70;99.90;;;;;;5067650;28;20449;-65
2023/01/10 12:39:15;;;;;;;23.20;4.85;;;6.70;99.90;;;;;;5064348;28;20041;-61
2023/01/10 12:44:40;;;;;;;23.25;4.05;;;6.70;99.90;;;;;;5069954;28;20060;-64
2023/01/10 12:47:24;;;;;;;21.83;4.15;;;6.70;99.90;;;;;;5068051;28;20068;-63
2023/01/10 12:49:58;;;;;;;23.75;4.90;;;6.70;99.90;;;;;;5069931;28;20051;-63
2023/01/10 12:52:30;;;;;;;19.63;4.05;;;6.60;99.90;;;;;;5067027;28;20045;-64
2023/01/10 12:54:56;;;;;;;25.10;4.88;;;6.60;99.90;;;;;;5068590;28;20041;-64
2023/01/10 12:57:35;;;;;;;26.33;4.63;;;6.60;99.90;;;;;;5068876;28;20047;-62
2023/01/10 13:00:05;;;;;;;23.20;5.20;;;6.60;99.90;;;;;;5068178;28;20068;-65
2023/01/10 13:02:42;;;;;;;25.13;4.30;;;6.60;99.90;;;;;;5068930;28;20080;-63
2023/01/10 13:05:16;;;;;;;22.05;3.63;;;6.60;99.90;;;;;;5066243;28;20038;-63
2023/01/10 13:07:44;;;;;;;21.33;4.07;;;6.60;99.90;;;;;;5069511;28;20028;-64
2023/01/10 13:10:18;;;;;;;20.48;3.95;;;6.60;99.90;;;;;;5069448;28;20517;-64
2023/01/10 13:12:50;;;;;;;17.60;3.65;;;6.50;99.90;;;;;;5070979;28;20037;-62
2023/01/10 13:15:33;;;;;;;22.08;4.88;;;6.50;99.90;;;;;;5052186;28;20048;-63
2023/01/10 13:18:56;;;;;;;26.77;5.28;;;6.50;99.90;;;;;;5069103;28;20040;-68
2023/01/10 13:21:21;;;;;;;28.33;5.67;;;6.50;99.90;;;;;;5009695;28;20049;-63